Time;durP1;ratioP1;P1;durP2;ratioP2;P2;SDS_P1;SDS_P2;PMS_P1;PMS_P2;Temp;Humidity;BMP_temperature;BMP_pressure;BME280_temperature;BME280_humidity;BME280_pressure;Samples;Min_cycle;Max_cycle;Signal;HPM_P1;HPM_P2
2021/12/23 00:01:16;;;;;;;;;;;0.80;99.90;;;;;;5056343;28;20004;-66
2021/12/23 00:03:41;;;;;;;;;;;0.70;99.90;;;;;;5054540;28;20381;-67
2021/12/23 00:06:07;;;;;;;;;;;0.80;99.90;;;;;;5060232;28;19920;-67
2021/12/23 00:08:33;;;;;;;;;;;0.80;99.90;;;;;;5054294;28;19913;-67
2021/12/23 00:10:59;;;;;;;;;;;0.90;99.90;;;;;;5051944;28;19970;-65
2021/12/23 00:13:24;;;;;;;;;;;0.90;99.90;;;;;;5057079;28;20372;-66
2021/12/23 00:16:18;;;;;;;;;;;0.90;99.90;;;;;;5052334;28;20310;-67
2021/12/23 00:24:12;;;;;;;;;;;0.80;99.90;;;;;;5005752;28;19960;-66
2021/12/23 00:26:38;;;;;;;;;;;0.90;99.90;;;;;;5004443;28;19914;-67
2021/12/23 00:29:03;;;;;;;;;;;0.90;99.90;;;;;;5024763;28;19917;-66
2021/12/23 00:31:29;;;;;;;;;;;1.00;99.90;;;;;;5046788;28;20113;-67
2021/12/23 00:33:54;;;;;;;;;;;1.00;99.90;;;;;;5028336;28;19917;-66
2021/12/23 00:36:20;;;;;;;;;;;1.00;99.90;;;;;;5042714;28;19913;-67
2021/12/23 00:38:54;;;;;;;;;;;1.00;99.90;;;;;;5035902;28;19920;-66
2021/12/23 00:41:20;;;;;;;;;;;1.00;99.90;;;;;;5047977;28;19917;-66
2021/12/23 00:43:46;;;;;;;;;;;1.00;99.90;;;;;;5058510;28;19912;-65
2021/12/23 00:46:11;;;;;;;;;;;1.00;99.90;;;;;;5049123;28;19916;-66
2021/12/23 00:48:39;;;;;;;;;;;0.90;99.90;;;;;;5061837;28;19927;-66
2021/12/23 00:51:05;;;;;;;;;;;1.00;99.90;;;;;;5051273;28;19991;-66
2021/12/23 00:53:36;;;;;;;;;;;1.00;99.90;;;;;;5048466;28;19948;-66
2021/12/23 00:56:03;;;;;;;;;;;1.00;99.90;;;;;;5049150;28;20576;-66
2021/12/23 00:58:28;;;;;;;;;;;1.00;99.90;;;;;;5048195;28;19912;-67
2021/12/23 01:00:54;;;;;;;;;;;0.90;99.90;;;;;;5047186;28;19920;-66
2021/12/23 01:03:20;;;;;;;;;;;0.90;99.90;;;;;;5056214;28;19958;-66
2021/12/23 01:05:46;;;;;;;;;;;0.90;99.90;;;;;;5047442;28;19909;-67
2021/12/23 01:08:11;;;;;;;;;;;0.90;99.90;;;;;;5047384;28;19971;-66
2021/12/23 01:10:37;;;;;;;;;;;0.80;99.90;;;;;;5057541;28;20000;-65
2021/12/23 01:13:04;;;;;;;;;;;0.80;99.90;;;;;;5055862;28;19913;-66
2021/12/23 01:17:59;;;;;;;;;;;0.90;99.90;;;;;;5047733;28;20233;-66
2021/12/23 01:20:32;;;;;;;;;;;0.90;99.90;;;;;;5047196;28;19952;-65
2021/12/23 01:22:58;;;;;;;;;;;0.90;99.90;;;;;;5046690;28;19916;-67
2021/12/23 01:25:25;;;;;;;;;;;0.90;99.90;;;;;;5047326;28;19913;-66
2021/12/23 01:27:50;;;;;;;;;;;0.90;99.90;;;;;;5047147;28;19921;-66
2021/12/23 01:30:17;;;;;;;;;;;0.80;99.90;;;;;;5046226;28;19919;-65
2021/12/23 01:32:43;;;;;;;;;;;0.70;99.90;;;;;;5042018;28;19913;-65
2021/12/23 01:35:09;;;;;;;;;;;0.70;99.90;;;;;;5046794;28;19913;-66
2021/12/23 01:37:34;;;;;;;;;;;0.70;99.90;;;;;;5048317;28;19920;-67
2021/12/23 01:40:00;;;;;;;;;;;0.70;99.90;;;;;;5052425;28;19920;-67
2021/12/23 01:42:25;;;;;;;;;;;0.70;99.90;;;;;;5052387;28;19912;-66
2021/12/23 01:44:51;;;;;;;;;;;0.70;99.90;;;;;;5046311;28;20261;-67
2021/12/23 01:47:16;;;;;;;;;;;0.70;99.90;;;;;;5047446;28;19943;-67
2021/12/23 01:49:42;;;;;;;;;;;0.70;99.90;;;;;;5044365;28;20416;-67
2021/12/23 01:52:07;;;;;;;;;;;0.70;99.90;;;;;;5045798;28;20255;-67
2021/12/23 01:54:33;;;;;;;;;;;0.60;99.90;;;;;;5058602;28;20327;-66
2021/12/23 01:56:58;;;;;;;;;;;0.60;99.90;;;;;;5058445;28;19920;-66
2021/12/23 01:59:24;;;;;;;;;;;0.60;99.90;;;;;;5053768;28;19919;-66
2021/12/23 02:01:49;;;;;;;;;;;0.60;99.90;;;;;;5049971;28;19913;-67
2021/12/23 02:04:15;;;;;;;;;;;0.60;99.90;;;;;;5050855;28;19944;-66
2021/12/23 02:06:40;;;;;;;;;;;0.60;99.90;;;;;;5049544;28;20427;-66
2021/12/23 02:09:06;;;;;;;;;;;0.60;99.90;;;;;;5050360;28;20266;-66
2021/12/23 02:11:31;;;;;;;;;;;0.60;99.90;;;;;;5050196;28;19927;-66
2021/12/23 02:13:57;;;;;;;;;;;0.50;99.90;;;;;;5050668;28;20007;-68
2021/12/23 02:16:23;;;;;;;;;;;0.50;99.90;;;;;;5045333;28;19913;-66
2021/12/23 02:18:48;;;;;;;;;;;0.50;99.90;;;;;;5046997;28;19912;-67
2021/12/23 02:21:13;;;;;;;;;;;0.40;99.90;;;;;;5049688;28;19913;-66
2021/12/23 02:23:39;;;;;;;;;;;0.40;99.90;;;;;;5050710;28;20115;-66
2021/12/23 02:26:04;;;;;;;;;;;0.40;99.90;;;;;;5065151;28;19920;-67
2021/12/23 02:28:30;;;;;;;;;;;0.40;99.90;;;;;;5049508;28;19920;-67
2021/12/23 02:30:56;;;;;;;;;;;0.40;99.90;;;;;;5049415;28;19966;-66
2021/12/23 02:33:23;;;;;;;;;;;0.40;99.90;;;;;;5057826;28;19951;-65
2021/12/23 02:35:48;;;;;;;;;;;0.30;99.90;;;;;;5056957;28;19913;-66
2021/12/23 02:38:14;;;;;;;;;;;0.20;99.90;;;;;;5049837;28;19923;-66
2021/12/23 02:40:41;;;;;;;;;;;0.10;99.90;;;;;;5048134;28;20587;-66
2021/12/23 02:43:25;;;;;;;;;;;0.10;99.90;;;;;;5049041;28;19982;-65
2021/12/23 02:45:55;;;;;;;;;;;0.10;99.90;;;;;;5049224;28;20217;-66
2021/12/23 02:48:23;;;;;;;;;;;0.20;99.90;;;;;;5052471;28;19929;-66
2021/12/23 02:50:50;;;;;;;;;;;0.10;99.90;;;;;;5053202;28;19968;-67
2021/12/23 02:53:16;;;;;;;;;;;0.00;99.90;;;;;;5046003;28;19921;-66
2021/12/23 02:55:42;;;;;;;;;;;0.00;99.90;;;;;;5050070;28;19924;-66
2021/12/23 02:58:09;;;;;;;;;;;0.00;99.90;;;;;;5049402;28;20394;-66
2021/12/23 03:00:35;;;;;;;;;;;0.00;99.90;;;;;;5049440;28;19913;-65
2021/12/23 03:03:01;;;;;;;;;;;-0.10;99.90;;;;;;5052558;28;20423;-65
2021/12/23 03:05:26;;;;;;;;;;;-0.10;99.90;;;;;;5058373;28;19924;-64
2021/12/23 03:07:52;;;;;;;;;;;-0.10;99.90;;;;;;5068684;28;20008;-66
2021/12/23 03:10:17;;;;;;;;;;;-0.10;99.90;;;;;;5060010;28;19931;-66
2021/12/23 03:12:43;;;;;;;;;;;-0.10;99.90;;;;;;5048749;28;19917;-65
2021/12/23 03:15:08;;;;;;;;;;;-0.10;99.90;;;;;;5048907;28;19917;-68
2021/12/23 03:17:34;;;;;;;;;;;-0.10;99.90;;;;;;5049269;28;19913;-68
2021/12/23 03:19:59;;;;;;;;;;;-0.10;99.90;;;;;;5049245;28;19913;-68
2021/12/23 03:22:25;;;;;;;;;;;-0.10;99.90;;;;;;5050130;28;19908;-65
2021/12/23 03:24:50;;;;;;;;;;;-0.10;99.90;;;;;;5049530;28;19958;-66
2021/12/23 03:27:16;;;;;;;;;;;-0.10;99.90;;;;;;5049391;28;20045;-67
2021/12/23 03:29:41;;;;;;;;;;;-0.10;99.90;;;;;;5050664;28;19975;-66
2021/12/23 03:32:07;;;;;;;;;;;-0.10;99.90;;;;;;5048098;28;19913;-66
2021/12/23 03:34:32;;;;;;;;;;;-0.10;99.90;;;;;;5048819;28;19915;-66
2021/12/23 03:36:58;;;;;;;;;;;-0.10;99.90;;;;;;5048473;28;19917;-65
2021/12/23 03:39:23;;;;;;;;;;;-0.10;99.90;;;;;;5048717;28;20249;-66
2021/12/23 03:41:49;;;;;;;;;;;0.00;99.90;;;;;;5048478;28;19916;-65
2021/12/23 03:44:15;;;;;;;;;;;0.00;99.90;;;;;;5048817;28;19909;-66
2021/12/23 03:46:41;;;;;;;;;;;0.00;99.90;;;;;;5049691;28;19944;-67
2021/12/23 03:49:07;;;;;;;;;;;0.00;99.90;;;;;;5053379;28;19921;-65
2021/12/23 03:51:32;;;;;;;;;;;0.00;99.90;;;;;;5052782;28;19920;-66
2021/12/23 03:53:58;;;;;;;;;;;0.00;99.90;;;;;;5057830;28;19981;-67
2021/12/23 03:56:24;;;;;;;;;;;0.10;99.90;;;;;;5057484;28;19912;-65
2021/12/23 03:58:49;;;;;;;;;;;0.10;99.90;;;;;;5052621;28;19909;-64
2021/12/23 04:01:15;;;;;;;;;;;0.10;99.90;;;;;;5047621;28;19913;-67
2021/12/23 04:03:40;;;;;;;;;;;0.10;99.90;;;;;;5048200;28;19920;-66
2021/12/23 04:06:06;;;;;;;;;;;0.00;99.90;;;;;;5028483;28;19913;-67
2021/12/23 04:08:31;;;;;;;;;;;0.00;99.90;;;;;;5035247;28;19943;-66
2021/12/23 04:10:59;;;;;;;;;;;0.00;99.90;;;;;;5047851;28;20339;-66
2021/12/23 04:13:25;;;;;;;;;;;0.00;99.90;;;;;;5050398;28;19915;-67
2021/12/23 04:15:51;;;;;;;;;;;0.00;99.90;;;;;;5049605;28;19913;-65
2021/12/23 04:18:17;;;;;;;;;;;0.00;99.90;;;;;;5049566;28;19978;-66
2021/12/23 04:20:53;;;;;;;;;;;0.00;99.90;;;;;;5048082;28;19912;-66
2021/12/23 04:23:26;;;;;;;;;;;0.00;99.90;;;;;;5047954;28;19921;-66
2021/12/23 04:25:51;;;;;;;;;;;-0.10;99.90;;;;;;5047459;28;19952;-67
2021/12/23 04:28:17;;;;;;;;;;;-0.10;99.90;;;;;;5047782;28;20264;-66
2021/12/23 04:30:42;;;;;;;;;;;0.00;99.90;;;;;;5047226;28;19952;-66
2021/12/23 04:33:08;;;;;;;;;;;0.00;99.90;;;;;;5033157;28;19909;-66
2021/12/23 04:35:33;;;;;;;;;;;0.00;99.90;;;;;;5035552;28;19928;-65
2021/12/23 04:37:59;;;;;;;;;;;0.10;99.90;;;;;;5047595;28;20012;-65
2021/12/23 04:40:24;;;;;;;;;;;0.00;99.90;;;;;;5047358;28;19912;-67
2021/12/23 04:42:50;;;;;;;;;;;0.10;99.90;;;;;;5047772;28;20000;-67
2021/12/23 04:45:16;;;;;;;;;;;0.10;99.90;;;;;;5047503;28;19913;-66
2021/12/23 04:47:41;;;;;;;;;;;0.20;99.90;;;;;;5047447;28;19963;-65
2021/12/23 04:50:08;;;;;;;;;;;0.30;99.90;;;;;;5047174;28;19913;-67
2021/12/23 04:52:34;;;;;;;;;;;0.30;99.90;;;;;;5047469;28;19991;-66
2021/12/23 04:54:59;;;;;;;;;;;0.40;99.90;;;;;;5035756;28;20365;-66
2021/12/23 04:57:25;;;;;;;;;;;0.40;99.90;;;;;;5038940;28;19913;-66
2021/12/23 04:59:50;;;;;;;;;;;0.30;99.90;;;;;;5034586;28;19919;-67
2021/12/23 05:02:16;;;;;;;;;;;0.30;99.90;;;;;;5041663;28;20431;-66
2021/12/23 05:04:41;;;;;;;;;;;0.30;99.90;;;;;;5038344;28;20236;-66
2021/12/23 05:07:06;;;;;;;;;;;0.30;99.90;;;;;;5038230;28;20003;-67
2021/12/23 05:09:32;;;;;;;;;;;0.20;99.90;;;;;;5035951;28;19917;-65
2021/12/23 05:11:57;;;;;;;;;;;0.20;99.90;;;;;;5067071;23;19928;-60
2021/12/23 05:14:23;;;;;;;;;;;0.30;99.90;;;;;;5073806;28;19913;-61
2021/12/23 05:16:48;;;;;;;;;;;0.30;99.90;;;;;;5087013;28;19908;-61
2021/12/23 05:19:14;;;;;;;;;;;0.30;99.90;;;;;;5088096;28;20015;-61
2021/12/23 05:21:39;;;;;;;;;;;0.30;99.90;;;;;;5082502;28;19939;-62
2021/12/23 05:24:05;;;;;;;;;;;0.20;99.90;;;;;;5090616;28;20527;-61
2021/12/23 05:26:31;;;;;;;;;;;0.30;99.90;;;;;;5090621;28;19923;-62
2021/12/23 05:28:56;;;;;;;;;;;0.30;99.90;;;;;;5094863;28;20404;-62
2021/12/23 05:31:22;;;;;;;;;;;0.20;99.90;;;;;;5095718;28;20341;-61
2021/12/23 05:33:47;;;;;;;;;;;0.20;99.90;;;;;;5093994;28;19912;-61
2021/12/23 05:36:12;;;;;;;;;;;0.30;99.90;;;;;;5098204;28;19912;-61
2021/12/23 05:38:38;;;;;;;;;;;0.30;99.90;;;;;;5093982;28;19918;-62
2021/12/23 05:41:03;;;;;;;;;;;0.30;99.90;;;;;;5097979;28;20422;-62
2021/12/23 05:43:29;;;;;;;;;;;0.30;99.90;;;;;;5099385;28;19911;-62
2021/12/23 05:45:54;;;;;;;;;;;0.30;99.90;;;;;;5089535;28;19939;-60
2021/12/23 05:48:20;;;;;;;;;;;0.30;99.90;;;;;;5091046;28;19920;-61
2021/12/23 05:50:45;;;;;;;;;;;0.30;99.90;;;;;;5090721;28;19959;-61
2021/12/23 05:53:11;;;;;;;;;;;0.30;99.90;;;;;;5089641;28;19920;-61
2021/12/23 05:55:36;;;;;;;;;;;0.30;99.90;;;;;;5089565;28;19912;-62
2021/12/23 05:58:02;;;;;;;;;;;0.30;99.90;;;;;;5089678;28;20371;-62
2021/12/23 06:00:31;;;;;;;;;;;0.30;99.90;;;;;;5082122;28;19959;-62
2021/12/23 06:02:57;;;;;;;;;;;0.40;99.90;;;;;;5080451;28;19912;-62
2021/12/23 06:05:24;;;;;;;;;;;0.30;99.90;;;;;;5079772;28;19920;-64
2021/12/23 06:07:49;;;;;;;;;;;0.30;99.90;;;;;;5076556;28;19917;-62
2021/12/23 06:10:15;;;;;;;;;;;0.30;99.90;;;;;;5071989;28;19981;-62
2021/12/23 06:12:41;;;;;;;;;;;0.30;99.90;;;;;;5071105;28;20307;-62
2021/12/23 06:15:07;;;;;;;;;;;0.20;99.90;;;;;;5075925;28;19920;-61
2021/12/23 06:17:33;;;;;;;;;;;0.30;99.90;;;;;;5072466;28;19908;-61
2021/12/23 06:19:58;;;;;;;;;;;0.40;99.90;;;;;;5094287;28;20023;-62
2021/12/23 06:22:24;;;;;;;;;;;0.40;99.90;;;;;;5080239;28;19979;-62
2021/12/23 06:24:50;;;;;;;;;;;0.40;99.90;;;;;;5071343;28;20330;-61
2021/12/23 06:27:16;;;;;;;;;;;0.40;99.90;;;;;;5079575;28;19912;-62
2021/12/23 06:29:41;;;;;;;;;;;0.50;99.90;;;;;;5073347;28;19967;-62
2021/12/23 06:32:07;;;;;;;;;;;0.50;99.90;;;;;;5074965;28;19962;-62
2021/12/23 06:34:32;;;;;;;;;;;0.60;99.90;;;;;;5071843;28;19920;-61
2021/12/23 06:36:58;;;;;;;;;;;0.60;99.90;;;;;;5072479;28;19908;-62
2021/12/23 06:39:24;;;;;;;;;;;0.60;99.90;;;;;;5075360;28;19916;-61
2021/12/23 06:41:49;;;;;;;;;;;0.50;99.90;;;;;;5067964;28;19924;-62
2021/12/23 06:44:15;;;;;;;;;;;0.60;99.90;;;;;;5071563;28;20003;-61
2021/12/23 06:46:40;;;;;;;;;;;0.60;99.90;;;;;;5071560;28;20276;-61
2021/12/23 06:49:06;;;;;;;;;;;0.60;99.90;;;;;;5068826;28;20027;-62
2021/12/23 06:51:31;;;;;;;;;;;0.50;99.90;;;;;;5076597;28;20277;-62
2021/12/23 06:53:58;;;;;;;;;;;0.60;99.90;;;;;;5082409;28;19912;-61
2021/12/23 06:56:24;;;;;;;;;;;0.60;99.90;;;;;;5071465;28;19971;-62
2021/12/23 06:58:50;;;;;;;;;;;0.70;99.90;;;;;;5070645;28;20008;-62
2021/12/23 07:01:18;;;;;;;;;;;0.60;99.90;;;;;;5072095;28;19924;-62
2021/12/23 07:06:30;;;;;;;;;;;0.70;99.90;;;;;;5089719;28;20171;-62
2021/12/23 07:08:56;;;;;;;;;;;0.70;99.90;;;;;;5087994;28;20432;-61
2021/12/23 07:11:21;;;;;;;;;;;0.70;99.90;;;;;;5076974;28;19927;-61
2021/12/23 07:13:47;;;;;;;;;;;0.70;99.90;;;;;;5071940;28;19909;-62
2021/12/23 07:16:12;;;;;;;;;;;0.80;99.90;;;;;;5068371;28;20056;-62
2021/12/23 07:18:38;;;;;;;;;;;0.80;99.90;;;;;;5069490;28;19908;-61
2021/12/23 07:21:03;;;;;;;;;;;0.70;99.90;;;;;;5067813;28;19952;-60
2021/12/23 07:23:29;;;;;;;;;;;0.70;99.90;;;;;;5083002;28;20112;-63
2021/12/23 07:25:54;;;;;;;;;;;0.80;99.90;;;;;;5103598;28;19907;-63
2021/12/23 07:28:20;;;;;;;;;;;0.80;99.90;;;;;;5092528;28;20299;-60
2021/12/23 07:30:45;;;;;;;;;;;0.80;99.90;;;;;;5089832;28;19935;-61
2021/12/23 07:33:11;;;;;;;;;;;0.70;99.90;;;;;;5095654;28;19908;-61
2021/12/23 07:35:36;;;;;;;;;;;0.70;99.90;;;;;;5101414;28;20254;-61
2021/12/23 07:38:02;;;;;;;;;;;0.70;99.90;;;;;;5109887;28;19965;-61
2021/12/23 07:40:28;;;;;;;;;;;0.70;99.90;;;;;;5109207;28;19914;-60
2021/12/23 07:42:58;;;;;;;;;;;0.70;99.90;;;;;;5095851;28;19998;-60
2021/12/23 07:45:28;;;;;;;;;;;0.80;99.90;;;;;;5078987;28;19922;-60
2021/12/23 07:47:54;;;;;;;;;;;0.80;99.90;;;;;;5096607;28;20003;-61
2021/12/23 07:50:20;;;;;;;;;;;0.80;99.90;;;;;;5098510;28;19948;-62
2021/12/23 07:52:45;;;;;;;;;;;0.90;99.90;;;;;;5106390;28;19908;-61
2021/12/23 07:55:11;;;;;;;;;;;1.00;99.90;;;;;;5114489;28;19907;-62
2021/12/23 07:57:36;;;;;;;;;;;0.90;99.90;;;;;;5114294;28;19951;-61
2021/12/23 08:00:04;;;;;;;;;;;0.80;99.90;;;;;;5112474;28;19960;-61
2021/12/23 08:02:29;;;;;;;;;;;0.80;99.90;;;;;;5106891;28;20054;-60
2021/12/23 08:04:55;;;;;;;;;;;0.80;99.90;;;;;;5091401;28;20362;-62
2021/12/23 08:07:20;;;;;;;;;;;0.90;99.90;;;;;;5089569;28;20010;-62
2021/12/23 08:09:46;;;;;;;;;;;0.90;99.90;;;;;;5089441;28;19919;-62
2021/12/23 08:12:11;;;;;;;;;;;0.90;99.90;;;;;;5089314;28;20073;-65
2021/12/23 08:14:36;;;;;;;;;;;0.90;99.90;;;;;;5088795;28;20203;-62
2021/12/23 08:17:02;;;;;;;;;;;0.80;99.90;;;;;;5088606;28;20027;-59
2021/12/23 08:19:27;;;;;;;;;;;0.70;99.90;;;;;;5088656;28;20025;-61
2021/12/23 08:21:53;;;;;;;;;;;0.70;99.90;;;;;;5088161;28;20078;-61
2021/12/23 08:24:18;;;;;;;;;;;0.70;99.90;;;;;;5087845;28;19908;-62
2021/12/23 08:26:51;;;;;;;;;;;0.80;99.90;;;;;;5087569;28;19943;-61
2021/12/23 08:29:18;;;;;;;;;;;0.80;99.90;;;;;;5087267;28;20108;-62
2021/12/23 08:31:45;;;;;;;;;;;0.80;99.90;;;;;;5084514;28;20204;-62
2021/12/23 08:34:10;;;;;;;;;;;0.80;99.90;;;;;;5067471;28;19928;-61
2021/12/23 08:36:36;;;;;;;;;;;0.90;99.90;;;;;;5067358;28;19931;-61
2021/12/23 08:39:02;;;;;;;;;;;0.90;99.90;;;;;;5066611;28;19950;-61
2021/12/23 08:41:27;;;;;;;;;;;1.00;99.90;;;;;;5067175;28;20003;-63
2021/12/23 08:43:53;;;;;;;;;;;1.10;99.90;;;;;;5067548;28;19963;-61
2021/12/23 08:46:19;;;;;;;;;;;1.00;99.90;;;;;;5069161;28;19916;-62
2021/12/23 08:48:44;;;;;;;;;;;1.10;99.90;;;;;;5070659;28;20307;-60
2021/12/23 08:51:10;;;;;;;;;;;1.10;99.90;;;;;;5071658;28;20323;-60
2021/12/23 08:53:35;;;;;;;;;;;1.10;99.90;;;;;;5090646;28;19919;-62
2021/12/23 08:56:01;;;;;;;;;;;1.20;99.90;;;;;;5097232;28;20470;-61
2021/12/23 08:58:26;;;;;;;;;;;1.20;99.90;;;;;;5091739;28;20010;-63
2021/12/23 09:00:52;;;;;;;;;;;1.20;99.90;;;;;;5091744;28;20436;-61
2021/12/23 09:03:17;;;;;;;;;;;1.10;99.90;;;;;;5091566;28;19912;-60
2021/12/23 09:05:42;;;;;;;;;;;1.20;99.90;;;;;;5091965;28;19908;-61
2021/12/23 09:08:09;;;;;;;;;;;1.20;99.90;;;;;;5091597;28;20007;-61
2021/12/23 09:10:35;;;;;;;;;;;1.20;99.90;;;;;;5090533;28;19908;-61
2021/12/23 09:13:01;;;;;;;;;;;1.20;99.90;;;;;;5091501;28;19912;-61
2021/12/23 09:15:26;;;;;;;;;;;1.20;99.90;;;;;;5091987;28;19912;-62
2021/12/23 09:17:52;;;;;;;;;;;1.20;99.90;;;;;;5092096;28;19912;-61
2021/12/23 09:20:20;;;;;;;;;;;1.20;99.90;;;;;;5091687;28;19919;-62
2021/12/23 09:22:46;;;;;;;;;;;1.30;99.90;;;;;;5091585;28;19908;-61
2021/12/23 09:25:19;;;;;;;;;;;1.30;99.90;;;;;;5089909;28;19995;-61
2021/12/23 09:28:12;;;;;;;;;;;1.30;99.90;;;;;;5091310;28;20446;-60
2021/12/23 09:33:20;;;;;;;;;;;1.40;99.90;;;;;;5074957;28;19986;-62
2021/12/23 09:35:46;;;;;;;;;;;1.40;99.90;;;;;;5070621;28;19908;-60
2021/12/23 09:38:11;;;;;;;;;;;1.40;99.90;;;;;;5071369;28;19970;-60
2021/12/23 09:40:37;;;;;;;;;;;1.40;99.90;;;;;;5070892;28;19920;-61
2021/12/23 09:43:04;;;;;;;;;;;1.30;99.90;;;;;;5070547;28;20010;-61
2021/12/23 09:45:30;;;;;;;;;;;1.40;99.90;;;;;;5070417;28;19908;-60
2021/12/23 09:47:57;;;;;;;;;;;1.50;99.90;;;;;;5070355;28;19935;-61
2021/12/23 09:50:25;;;;;;;;;;;1.50;99.90;;;;;;5070081;28;19920;-61
2021/12/23 09:52:52;;;;;;;;;;;1.60;99.90;;;;;;5078215;28;19934;-60
2021/12/23 09:55:18;;;;;;;;;;;1.50;99.90;;;;;;5090926;28;19923;-61
2021/12/23 09:57:45;;;;;;;;;;;1.60;99.90;;;;;;5090918;28;19984;-61
2021/12/23 10:00:11;;;;;;;;;;;1.60;99.90;;;;;;5090853;28;19908;-61
2021/12/23 10:02:40;;;;;;;;;;;1.70;99.90;;;;;;5091412;28;19915;-61
2021/12/23 10:05:10;;;;;;;;;;;1.80;99.90;;;;;;5090848;28;19912;-62
2021/12/23 10:07:36;;;;;;;;;;;1.70;99.90;;;;;;5092050;28;19915;-60
2021/12/23 10:10:10;;;;;;;;;;;1.80;99.90;;;;;;5091443;28;19916;-61
2021/12/23 10:27:04;;;;;;;;;;;1.90;99.90;;;;;;5090384;28;20416;-61
2021/12/23 10:33:07;;;;;;;;;;;2.10;99.90;;;;;;5101734;28;20372;-62
2021/12/23 10:38:08;;;;;;;;;;;2.10;99.90;;;;;;5089937;28;20028;-60
2021/12/23 10:40:34;;;;;;;;;;;2.20;99.90;;;;;;5089358;28;19987;-60
2021/12/23 10:43:00;;;;;;;;;;;2.20;99.90;;;;;;5089934;28;20167;-62
2021/12/23 10:45:32;;;;;;;;;;;2.30;99.90;;;;;;5090077;28;19916;-61
2021/12/23 10:48:03;;;;;;;;;;;2.40;99.90;;;;;;5089586;28;19913;-60
2021/12/23 10:53:03;;;;;;;;;;;2.40;99.90;;;;;;5090139;28;19914;-61
2021/12/23 10:58:15;;;;;;;;;;;2.50;99.90;;;;;;5089160;28;19915;-61
2021/12/23 11:00:49;;;;;;;;;;;2.60;99.90;;;;;;5089649;28;19908;-61
2021/12/23 11:03:20;;;;;;;;;;;2.70;99.90;;;;;;5087226;28;19909;-61
2021/12/23 11:05:57;;;;;;;;;;;2.70;99.90;;;;;;5089537;28;19908;-60
2021/12/23 11:08:33;;;;;;;;;;;2.70;99.90;;;;;;5088917;28;19946;-62
2021/12/23 11:31:48;;;;;;;;;;;3.40;99.90;;;;;;5068999;28;20465;-67
2021/12/23 11:36:30;;;;;;;;;;;3.60;99.90;;;;;;5050308;28;20028;-66
2021/12/23 11:43:51;;;;;;;;;;;3.70;99.90;;;;;;5050854;28;20339;-67
2021/12/23 11:46:19;;;;;;;;;;;3.70;99.90;;;;;;5050902;28;20362;-68
2021/12/23 11:48:46;;;;;;;;;;;3.80;99.90;;;;;;5050129;28;19912;-67
2021/12/23 11:51:19;;;;;;;;;;;3.80;99.90;;;;;;5049064;28;20288;-67
2021/12/23 11:53:48;;;;;;;;;;;3.90;99.90;;;;;;5079332;28;19979;-67
2021/12/23 11:56:16;;;;;;;;;;;4.00;99.90;;;;;;5089910;28;20116;-68
2021/12/23 11:58:45;;;;;;;;;;;4.00;99.90;;;;;;5089019;28;19915;-68
2021/12/23 12:01:15;;;;;;;;;;;4.10;99.90;;;;;;5089150;28;19962;-67
2021/12/23 12:03:59;;;;;;;;;;;4.10;99.90;;;;;;5088925;28;20279;-69
2021/12/23 12:06:29;;;;;;;;;;;4.20;99.90;;;;;;5088640;28;19909;-67
2021/12/23 12:09:07;;;;;;;;;;;4.30;99.90;;;;;;5088609;28;19912;-64
2021/12/23 12:11:33;;;;;;;;;;;4.30;99.90;;;;;;5088937;28;20757;-67
2021/12/23 12:13:58;;;;;;;;;;;4.30;99.90;;;;;;5089522;28;19912;-67
2021/12/23 12:16:25;;;;;;;;;;;4.40;99.90;;;;;;5087612;28;20004;-66
2021/12/23 12:18:51;;;;;;;;;;;4.40;99.90;;;;;;5107279;28;20010;-68
2021/12/23 12:21:20;;;;;;;;;;;4.40;99.90;;;;;;5092696;28;19970;-66
2021/12/23 12:23:46;;;;;;;;;;;4.40;99.90;;;;;;5088227;28;20383;-67
2021/12/23 12:26:21;;;;;;;;;;;4.40;99.90;;;;;;5066143;28;19913;-67
2021/12/23 12:28:47;;;;;;;;;;;4.30;99.90;;;;;;5048240;28;20106;-69
2021/12/23 12:31:15;;;;;;;;;;;4.30;99.90;;;;;;5048166;28;19908;-69
2021/12/23 12:33:45;;;;;;;;;;;4.30;99.90;;;;;;5048443;28;19908;-69
2021/12/23 12:36:15;;;;;;;;;;;4.40;99.90;;;;;;5048948;28;19927;-68
2021/12/23 12:38:43;;;;;;;;;;;4.40;99.90;;;;;;5047945;28;19913;-67
2021/12/23 12:41:16;;;;;;;;;;;4.50;99.90;;;;;;5048127;28;19909;-69
2021/12/23 12:43:48;;;;;;;;;;;4.60;99.90;;;;;;5048225;28;20281;-70
2021/12/23 12:46:15;;;;;;;;;;;4.60;99.90;;;;;;5047951;28;19915;-68
2021/12/23 12:49:01;;;;;;;;;;;4.60;99.90;;;;;;5047994;28;20450;-70
2021/12/23 12:51:31;;;;;;;;;;;4.60;99.90;;;;;;5049117;28;19944;-70
2021/12/23 12:54:06;;;;;;;;;;;4.60;99.90;;;;;;5081794;28;19908;-67
2021/12/23 12:56:33;;;;;;;;;;;4.70;99.90;;;;;;5088187;28;20210;-68
2021/12/23 12:58:59;;;;;;;;;;;4.70;99.90;;;;;;5087730;28;19935;-68
2021/12/23 13:01:31;;;;;;;;;;;4.70;99.90;;;;;;5088053;28;20379;-67
2021/12/23 13:03:57;;;;;;;;;;;4.70;99.90;;;;;;5086540;28;19914;-68
2021/12/23 13:06:26;;;;;;;;;;;4.70;99.90;;;;;;5088317;28;19912;-68
2021/12/23 13:08:52;;;;;;;;;;;4.50;99.90;;;;;;5087646;28;19912;-67
2021/12/23 13:11:21;;;;;;;;;;;4.50;99.90;;;;;;5089049;28;20014;-68
2021/12/23 13:13:52;;;;;;;;;;;4.60;99.90;;;;;;5087938;28;19912;-66
2021/12/23 13:16:20;;;;;;;;;;;4.60;99.90;;;;;;5090094;28;20030;-67
2021/12/23 13:18:46;;;;;;;;;;;4.60;99.90;;;;;;5087465;28;19930;-67
2021/12/23 13:21:17;;;;;;;;;;;4.60;99.90;;;;;;5087814;28;20359;-68
2021/12/23 13:23:45;;;;;;;;;;;4.70;99.90;;;;;;5088126;28;19951;-67
2021/12/23 13:26:12;;;;;;;;;;;4.60;99.90;;;;;;5066538;28;20015;-67
2021/12/23 13:28:43;;;;;;;;;;;4.50;99.90;;;;;;5047529;28;19917;-67
2021/12/23 13:31:18;;;;;;;;;;;4.50;99.90;;;;;;5047717;28;20451;-67
2021/12/23 13:33:49;;;;;;;;;;;4.50;99.90;;;;;;5047711;28;20382;-68
2021/12/23 13:36:34;;;;;;;;;;;4.50;99.90;;;;;;5051788;28;19909;-65
2021/12/23 13:39:04;;;;;;;;;;;4.50;99.90;;;;;;5050859;28;19913;-67
2021/12/23 13:41:36;;;;;;;;;;;4.50;99.90;;;;;;5051584;28;19966;-67
2021/12/23 13:44:20;;;;;;;;;;;4.50;99.90;;;;;;5050908;28;19944;-67
2021/12/23 13:46:46;;;;;;;;;;;4.40;99.90;;;;;;5051866;28;19948;-68
2021/12/23 13:49:11;;;;;;;;;;;4.50;99.90;;;;;;5051007;28;19963;-67
2021/12/23 13:51:38;;;;;;;;;;;4.40;99.90;;;;;;5051266;28;19995;-67
2021/12/23 13:54:05;;;;;;;;;;;4.50;99.90;;;;;;5088015;28;19908;-67
2021/12/23 13:56:32;;;;;;;;;;;4.40;99.90;;;;;;5092402;28;19919;-66
2021/12/23 13:59:04;;;;;;;;;;;4.40;99.90;;;;;;5093659;28;19948;-68
2021/12/23 14:01:30;;;;;;;;;;;4.50;99.90;;;;;;5108067;28;19908;-66
2021/12/23 14:03:55;;;;;;;;;;;4.40;99.90;;;;;;5099863;28;20471;-67
2021/12/23 14:06:21;;;;;;;;;;;4.40;99.90;;;;;;5095778;28;19927;-68
2021/12/23 14:08:46;;;;;;;;;;;4.30;99.90;;;;;;5092762;28;19959;-67
2021/12/23 14:11:12;;;;;;;;;;;4.30;99.90;;;;;;5091386;28;20213;-66
2021/12/23 14:13:37;;;;;;;;;;;4.30;99.90;;;;;;5092818;28;19961;-69
2021/12/23 14:16:03;;;;;;;;;;;4.40;99.90;;;;;;5093414;28;19908;-67
2021/12/23 14:18:47;;;;;;;;;;;4.40;99.90;;;;;;5093616;28;19913;-68
2021/12/23 14:24:01;;;;;;;;;;;4.40;99.90;;;;;;5093119;28;19935;-68
2021/12/23 14:26:31;;;;;;;;;;;4.40;99.90;;;;;;5065480;28;20364;-66
2021/12/23 14:29:02;;;;;;;;;;;4.30;99.90;;;;;;5050766;28;20288;-68
2021/12/23 14:31:28;;;;;;;;;;;4.30;99.90;;;;;;5049631;28;19921;-68
2021/12/23 14:34:02;;;;;;;;;;;4.30;99.90;;;;;;5051334;28;19909;-67
2021/12/23 14:36:30;;;;;;;;;;;4.40;99.90;;;;;;5052572;28;19912;-65
2021/12/23 14:38:57;;;;;;;;;;;4.50;99.90;;;;;;5050230;28;19955;-67
2021/12/23 14:41:24;;;;;;;;;;;4.40;99.90;;;;;;5049846;28;19965;-67
2021/12/23 14:43:53;;;;;;;;;;;4.40;99.90;;;;;;5049595;28;20241;-67
2021/12/23 14:46:21;;;;;;;;;;;4.30;99.90;;;;;;5049558;28;20514;-67
2021/12/23 14:51:22;;;;;;;;;;;4.40;99.90;;;;;;5050613;28;19920;-69
2021/12/23 14:54:03;;;;;;;;;;;4.40;99.90;;;;;;5097054;28;20015;-67
2021/12/23 14:56:28;;;;;;;;;;;4.40;99.90;;;;;;5093422;28;20011;-66
2021/12/23 14:59:04;;;;;;;;;;;4.40;99.90;;;;;;5097521;28;20282;-71
2021/12/23 15:01:30;;;;;;;;;;;4.40;99.90;;;;;;5102121;28;20386;-68
2021/12/23 15:04:09;;;;;;;;;;;4.40;99.90;;;;;;5096130;28;19957;-65
2021/12/23 15:06:54;;;;;;;;;;;4.40;99.90;;;;;;5090636;28;19912;-67
2021/12/23 15:09:23;;;;;;;;;;;4.40;99.90;;;;;;5090552;28;20347;-66
2021/12/23 15:11:48;;;;;;;;;;;4.50;99.90;;;;;;5090484;28;19916;-66
2021/12/23 15:14:14;;;;;;;;;;;4.50;99.90;;;;;;5089921;28;20011;-67
2021/12/23 15:16:40;;;;;;;;;;;4.50;99.90;;;;;;5090592;28;20007;-67
2021/12/23 15:19:22;;;;;;;;;;;4.50;99.90;;;;;;5089505;28;19995;-68
2021/12/23 15:21:50;;;;;;;;;;;4.50;99.90;;;;;;5089586;28;20399;-66
2021/12/23 15:24:18;;;;;;;;;;;4.40;99.90;;;;;;5089990;28;19908;-66
2021/12/23 15:26:53;;;;;;;;;;;4.40;99.90;;;;;;5058167;28;19909;-69
2021/12/23 15:29:20;;;;;;;;;;;4.40;99.90;;;;;;5048810;28;19917;-69
2021/12/23 15:32:00;;;;;;;;;;;4.40;99.90;;;;;;5049083;28;19990;-67
2021/12/23 15:34:28;;;;;;;;;;;4.50;99.90;;;;;;5049136;28;20443;-66
2021/12/23 15:36:54;;;;;;;;;;;4.50;99.90;;;;;;5049941;28;19909;-68
2021/12/23 15:39:21;;;;;;;;;;;4.50;99.90;;;;;;5048102;28;20439;-68
2021/12/23 15:41:47;;;;;;;;;;;4.40;99.90;;;;;;5061450;28;19991;-67